Time,TemperatureF,DewpointF,PressureIn,WindDirection,WindDirectionDegrees,WindSpeedMPH,WindSpeedGustMPH,Humidity,HourlyPrecipIn,Conditions,Clouds,dailyrainin,SolarRadiationWatts/m^2,SoftwareType,DateUTC
2013-07-10 00:04:00,62.0,-99.9,30.07,ESE,111,4.0,7.0,0,0.00,,,0.00,0,Wunderground v.1.15,2013-07-10 04:04:00,
2013-07-10 00:34:00,61.8,-99.9,30.07,East,101,4.0,5.0,0,0.00,,,0.00,0,Wunderground v.1.15,2013-07-10 04:34:00,
2013-07-10 01:04:00,61.8,-99.9,30.06,ESE,120,3.0,3.0,0,0.00,,,0.00,0,Wunderground v.1.15,2013-07-10 05:04:00,
2013-07-10 01:33:00,61.8,-99.9,30.05,ESE,122,3.0,3.0,0,0.00,,,0.00,0,Wunderground v.1.15,2013-07-10 05:33:00,
2013-07-10 02:04:00,61.7,-99.9,30.05,ESE,120,4.0,4.0,0,0.00,,,0.00,0,Wunderground v.1.15,2013-07-10 06:04:00,
2013-07-10 02:34:00,61.6,-99.9,30.04,ESE,105,4.0,5.0,0,0.00,,,0.00,0,Wunderground v.1.15,2013-07-10 06:34:00,
2013-07-10 03:04:00,61.5,-99.9,30.04,SE,126,5.0,5.0,0,0.00,,,0.00,0,Wunderground v.1.15,2013-07-10 07:04:00,
2013-07-10 03:34:00,61.4,-99.9,30.03,SE,141,3.0,3.0,0,0.00,,,0.00,0,Wunderground v.1.15,2013-07-10 07:34:00,
2013-07-10 04:04:00,61.1,-99.9,30.02,SE,133,2.0,4.0,0,0.00,,,0.00,0,Wunderground v.1.15,2013-07-10 08:04:00,
2013-07-10 04:34:00,60.9,-99.9,30.02,ESE,107,4.0,5.0,0,0.00,,,0.00,0,Wunderground v.1.15,2013-07-10 08:34:00,
2013-07-10 05:04:00,60.7,-99.9,30.03,ESE,105,2.0,2.0,0,0.00,,,0.00,0,Wunderground v.1.15,2013-07-10 09:04:00,
2013-07-10 05:33:00,60.7,-99.9,30.03,ESE,105,0.0,0.0,0,0.00,,,0.00,5,Wunderground v.1.15,2013-07-10 09:33:00,
2013-07-10 06:04:00,60.8,-99.9,30.02,ESE,105,2.0,2.0,0,0.00,,,0.00,21,Wunderground v.1.15,2013-07-10 10:04:00,
2013-07-10 06:34:00,60.7,-99.9,30.03,ESE,121,3.0,3.0,0,0.00,,,0.00,39,Wunderground v.1.15,2013-07-10 10:34:00,
2013-07-10 07:04:00,60.9,-99.9,30.02,ESE,116,5.0,5.0,0,0.00,,,0.00,60,Wunderground v.1.15,2013-07-10 11:04:00,
2013-07-10 07:34:00,61.4,-99.9,30.01,East,96,5.0,7.0,0,0.00,,,0.00,114,Wunderground v.1.15,2013-07-10 11:34:00,
2013-07-10 08:04:00,62.4,-99.9,30.02,ESE,119,1.0,1.0,0,0.00,,,0.00,100,Wunderground v.1.15,2013-07-10 12:04:00,
2013-07-10 08:33:00,62.5,-99.9,30.00,SE,127,7.0,8.0,0,0.00,,,0.00,176,Wunderground v.1.15,2013-07-10 12:33:00,
2013-07-10 09:04:00,63.2,-99.9,30.00,South,182,4.0,5.0,0,0.00,,,0.00,236,Wunderground v.1.15,2013-07-10 13:04:00,
2013-07-10 09:34:00,62.9,-99.9,29.99,ESE,107,6.0,7.0,0,0.00,,,0.00,234,Wunderground v.1.15,2013-07-10 13:34:00,
2013-07-10 10:04:00,62.9,-99.9,29.99,SSE,154,6.0,6.0,0,0.00,,,0.00,171,Wunderground v.1.15,2013-07-10 14:04:00,
2013-07-10 10:34:00,63.1,-99.9,30.00,SSE,151,2.0,2.0,0,0.00,,,0.00,174,Wunderground v.1.15,2013-07-10 14:34:00,
2013-07-10 11:04:00,63.9,-99.9,29.99,SE,143,1.0,1.0,0,0.00,,,0.00,218,Wunderground v.1.15,2013-07-10 15:04:00,
2013-07-10 11:33:00,64.0,-99.9,29.97,SSE,155,2.0,4.0,0,0.00,,,0.00,285,Wunderground v.1.15,2013-07-10 15:33:00,
2013-07-10 12:04:00,63.7,-99.9,29.97,SE,141,2.0,6.0,0,0.00,,,0.00,258,Wunderground v.1.15,2013-07-10 16:04:00,
2013-07-10 12:34:00,64.2,-99.9,29.95,East,81,4.0,5.0,0,0.00,,,0.00,490,Wunderground v.1.15,2013-07-10 16:34:00,
2013-07-10 13:04:00,68.8,-99.9,29.95,South,172,1.0,1.0,0,0.00,,,0.00,424,Wunderground v.1.15,2013-07-10 17:04:00,
2013-07-10 13:34:00,65.6,-99.9,29.94,SE,131,3.0,5.0,0,0.00,,,0.00,350,Wunderground v.1.15,2013-07-10 17:34:00,
2013-07-10 14:04:00,63.1,-99.9,29.94,SE,142,2.0,4.0,0,0.00,,,0.00,113,Wunderground v.1.15,2013-07-10 18:04:00,
2013-07-10 14:33:00,62.5,-99.9,29.92,SE,146,2.0,6.0,0,0.00,,,0.00,144,Wunderground v.1.15,2013-07-10 18:33:00,
2013-07-10 15:04:00,63.1,-99.9,29.91,SE,137,2.0,2.0,0,0.00,,,0.00,220,Wunderground v.1.15,2013-07-10 19:04:00,
2013-07-10 15:34:00,63.5,-99.9,29.89,East,99,4.0,4.0,0,0.00,,,0.00,197,Wunderground v.1.15,2013-07-10 19:34:00,
2013-07-10 16:04:00,63.4,-99.9,29.88,ESE,107,6.0,8.0,0,0.00,,,0.00,95,Wunderground v.1.15,2013-07-10 20:04:00,
2013-07-10 16:34:00,63.1,-99.9,29.87,ESE,109,5.0,6.0,0,0.00,,,0.00,46,Wunderground v.1.15,2013-07-10 20:34:00,
2013-07-10 17:04:00,63.4,-99.9,29.86,ESE,106,5.0,8.0,0,0.00,,,0.00,60,Wunderground v.1.15,2013-07-10 21:04:00,
2013-07-10 17:33:00,64.1,-99.9,29.85,SE,141,5.0,9.0,0,0.00,,,0.00,81,Wunderground v.1.15,2013-07-10 21:33:00,
2013-07-10 18:04:00,63.9,-99.9,29.84,ESE,113,6.0,6.0,0,0.00,,,0.00,30,Wunderground v.1.15,2013-07-10 22:04:00,
2013-07-10 18:34:00,63.4,-99.9,29.83,ESE,106,5.0,6.0,0,0.00,,,0.00,9,Wunderground v.1.15,2013-07-10 22:34:00,
2013-07-10 19:04:00,63.0,-99.9,29.83,ESE,111,5.0,5.0,0,0.00,,,0.00,11,Wunderground v.1.15,2013-07-10 23:04:00,
2013-07-10 19:34:00,62.7,-99.9,29.82,ESE,104,5.0,7.0,0,0.00,,,0.00,12,Wunderground v.1.15,2013-07-10 23:34:00,
2013-07-10 20:04:00,62.5,-99.9,29.81,SW,217,5.0,5.0,0,0.00,,,0.00,0,Wunderground v.1.15,2013-07-11 00:04:00,
2013-07-10 20:34:00,62.4,-99.9,29.81,ESE,107,5.0,5.0,0,0.00,,,0.00,0,Wunderground v.1.15,2013-07-11 00:34:00,
2013-07-10 21:04:00,62.7,-99.9,29.81,ESE,111,4.0,6.0,0,0.00,,,0.00,0,Wunderground v.1.15,2013-07-11 01:04:00,
2013-07-10 21:34:00,62.8,-99.9,29.80,East,101,6.0,6.0,0,0.00,,,0.00,0,Wunderground v.1.15,2013-07-11 01:34:00,
2013-07-10 22:04:00,62.8,-99.9,29.79,East,101,5.0,5.0,0,0.00,,,0.00,0,Wunderground v.1.15,2013-07-11 02:04:00,
2013-07-10 22:34:00,63.0,-99.9,29.78,East,101,2.0,2.0,0,0.00,,,0.00,0,Wunderground v.1.15,2013-07-11 02:34:00,
2013-07-10 23:04:00,63.1,-99.9,29.77,East,101,1.0,1.0,0,0.00,,,0.00,0,Wunderground v.1.15,2013-07-11 03:04:00,
2013-07-10 23:34:00,63.6,-99.9,29.76,East,101,1.0,1.0,0,0.00,,,0.00,0,Wunderground v.1.15,2013-07-11 03:34:00,